Terminal Aerodrome Forecast
Issued by NWS

Home | Current Version | Previous Version | Text Only | Print | Product List | Glossary On
Versions: 1 2 3 4 5 6 7 8 9 10 11 12 13 14 15
000
FTUS45 KBOU 131740
TAFAPA
TAF
KAPA 131740Z 1318/1418 14006KT P6SM SCT100 BKN220
     FM132200 09008KT P6SM SCT090 BKN150
     FM140300 05008KT P6SM BKN070 OVC120
     FM140500 36010KT P6SM VCSH SCT020 OVC050
     FM140630 34010KT 3SM -SN BKN011 OVC025
      TEMPO 1408/1412 1 1/2SM -SN BR BKN008 OVC020
     FM141200 34007KT P6SM -SN SCT012 OVC030
     FM141600 04005KT P6SM VCSH SCT020 BKN045=

USA.gov is the U.S. government's official web portal to all federal, state and local government web resources and services.